3K Feminino – Corrida Virtual CORTUBA

[/vc_column_text][/vc_column][/vc_row]

Resultado 3K Feminino

Colocação GeralNomeColocação Faixa EtáriaNúmeroSexoIdadeTempo BrutoTempo LiquidoEquipeCidadeRitmo Tempo LiquidoVelocidade Tempo LiquidoDescrição ModalidadeDescrição Faixa EtáriaCertificado
1NATÁLIA BITENCOURT-335F3000:12:1500:12:15F3 ASSESSORIATubarão00:04:0514,6903KFeminino de 30 até 34 anosImprimir
2ZÉLIA RODRIGUES DA SILVA-441F4700:12:2000:12:20SOB PRESSÃOJoinville00:04:0714,5903KFeminino de 45 até 49 anosImprimir
3GRASIELA RODRIGUES DA SILVA-184F3900:13:2400:13:24SOB PRESSÃOJoinville00:04:2813,4303KFeminino de 35 até 39 anosImprimir
4ALDICEIA CARARA-9F4200:14:5300:14:53RUNNING FRIENDSTUBARÃO00:04:5812,0903KFeminino de 40 até 44 anosImprimir
5IVETE CAVALHEIRO-209F4000:15:4400:15:44BN RUNNERSBRAÇO DO NORTE00:05:1511,4403KFeminino de 40 até 44 anosImprimir
6SANDRA TEZA VILAIN1389F4700:15:4500:15:45FAMILY RUNNERSCRICIÚMA00:05:1511,4303KFeminino de 45 até 49 anosImprimir
7ANA PAULA ESMERALDINO CANCELIER1443F1900:16:1900:16:19TREZE RUNNERSTUBARÃO00:05:2611,0303KFeminino de 18 até 19 anosImprimir
8ALESSANDRA SCHULS112F1500:16:2300:16:23SAUDE FORMA ACADEMIA THIAGO ROCHABRAÇO DO NORTE00:05:2810,9903KFeminino de 0 até 15 anos (Idade Inválida)Imprimir
9ROSILÉIA ASKEL1379F4300:16:5000:16:50BN RUNNERSBRAÇO DO NORTE00:05:3710,6903KFeminino de 40 até 44 anosImprimir
10SABRINA RODRIGUES1384F3400:17:2900:17:29SOB PRESSÃOJoinville00:05:5010,3003KFeminino de 30 até 34 anosImprimir
11IZADORA LORENZETTI1211F2800:17:4100:17:41RUNNING FRIENDSTUBARÃO00:05:5410,1803KFeminino de 25 até 29 anosImprimir
12BEATE ELIZABETE ROSECKER154F6300:17:4400:17:44RE9Balneário Gaivota00:05:5510,1503KFeminino de 60 até 64 anosImprimir
13KARINA MORESCO2251F3400:18:2000:18:20RUNNING FRIENDSTUBARÃO00:06:079,8203KFeminino de 30 até 34 anosImprimir
14ANGELA MARIA NUNES CRISTIANO136F5600:18:3000:18:30F3 ASSESSORIATUBARÃO00:06:109,7303KFeminino de 55 até 59 anosImprimir
15CAMILA DO NASCIMENTO BRASIL166F3500:18:3000:18:30F3 ASSESSORIATUBARÃO00:06:109,7303KFeminino de 35 até 39 anosImprimir
16MÔNICA BEZ PINTER3334F3200:18:3100:18:31SSTTubarão00:06:109,7203KFeminino de 30 até 34 anosImprimir
17CAROLINA CUSTÓDIO FELISBINO FERREIRA277F2600:19:4300:19:43RUNNING FRIENDSTUBARÃO00:06:349,1303KFeminino de 25 até 29 anosImprimir
18ISADORA WEBER LESSA1205F2000:20:5100:20:51CORREDORES BNBraço do Norte00:06:578,6303KFeminino de 20 até 24 anosImprimir
19BRUNA RODRIGUES SOARES260F2100:20:5800:20:58SOB PRESSÃOJoinville00:06:598,5903KFeminino de 20 até 24 anosImprimir
20GILIAN MARI ORTIZ ZAPELLINI2174F4100:21:0400:21:04SOB PRESSÃOJoinville00:07:018,5403KFeminino de 40 até 44 anosImprimir
21GABRIELY H CARARA DE S SILVA1169F1600:21:0900:21:09TREZE RUNNERSTREZE DE MAIO00:07:038,5103KFeminino de 16 até 17 anosImprimir
22JULIANA CORRÊA4243F3000:21:0900:21:09RDIASCAPIVARI DE BAIXO00:07:038,5103KFeminino de 30 até 34 anosImprimir
23ANDREZA OLIVEIRA SILVA333F2800:21:3300:21:33F3 ASSESSORIATubarão00:07:118,3503KFeminino de 25 até 29 anosImprimir
24MARIA EDUARDA ANTUNES3310F2100:21:3800:21:38ON EVENTOSTUBARÃO00:07:138,3203KFeminino de 20 até 24 anosImprimir
25ELIETE ELIAS ANGIOLETTI2129F3900:22:2400:22:24SOB PRESSÃOJoinville00:07:288,0403KFeminino de 35 até 39 anosImprimir
26BRUNA CLARA FLORIANO458F2300:22:2700:22:27X RUNNERSCRICIÚMA00:07:298,0203KFeminino de 20 até 24 anosImprimir
27DANIELA MILANEZ ZARBATO2101F4700:22:4600:22:46RUNNING FRIENDSTUBARÃO00:07:357,9103KFeminino de 45 até 49 anosImprimir
28KAREN SALVAN5250F3000:22:5900:22:59TREZE RUNNERSTREZE DE MAIO00:07:407,8303KFeminino de 30 até 34 anosImprimir
29SAMANTA MENDES ANACLETO5385F2000:23:4000:23:40Gravatal00:07:537,6103KFeminino de 20 até 24 anosImprimir
30ANGELICA MICHELS MULLER641F3400:24:5900:24:59TREZE RUNNERSTREZE DE MAIO00:08:207,2003KFeminino de 30 até 34 anosImprimir
31TATIANE GOMES MARCOS7411F3400:25:5700:25:57F3 ASSESSORIAMorro da Fumaça00:08:396,9403KFeminino de 30 até 34 anosImprimir
32JAMILE DOS SANTOS MENDONÇA6216F2400:26:2300:26:23TESBA RUNNERSTUBARÃO00:08:486,8203KFeminino de 20 até 24 anosImprimir
33MANUELA DE LORNZI CANCELIER BELOLI3299F3600:27:4800:27:48X RUNNERSCRICIÚMA00:09:166,4703KFeminino de 35 até 39 anosImprimir
34CRIS FAUSTINO390F4400:33:1500:33:15RUNNING FRIENDSTUBARÃO00:11:055,4103KFeminino de 40 até 44 anosImprimir
35CLAUDICÉIA ROCHA485F3500:33:4800:33:48Sangão00:11:165,3303KFeminino de 35 até 39 anosImprimir
36YARA FIDELIX DA SILVA4440F2600:35:0500:35:05RUNNING FRIENDSTUBARÃO00:11:425,1303KFeminino de 25 até 29 anosImprimir
37ELIZANDRA SOUZA DE OLIVEIRA DO LIVRAMENTO4133F4300:36:0400:36:04RUNNING FRIENDSTUBARÃO00:12:014,9903KFeminino de 40 até 44 anosImprimir
38ADRIANA GOMES CUSTÓDIO FELISBINO32F4600:37:4800:37:48RUNNING FRIENDSTUBARÃO00:12:364,7603KFeminino de 45 até 49 anosImprimir
39MALVINA CARARA1297F7700:43:0000:43:00TREZE RUNNERSTREZE DE MAIO00:14:204,1903KFeminino de 70 até 99 anosImprimir
40GEOVANA VICENTE DA SILVA5173F3600:45:1400:45:14TESBA RUNNERSTUBARÃO00:15:053,9803KFeminino de 35 até 39 anosImprimir
41JADLENE M. C.DOS SANTOS4213F4800:48:5100:48:51RUNNING FRIENDSTUBARÃO00:16:173,6803KFeminino de 45 até 49 anosImprimir
pt_BRPortuguese
pt_BRPortuguese